Time;durP1;ratioP1;P1;durP2;ratioP2;P2;SDS_P1;SDS_P2;PMS_P1;PMS_P2;Temp;Humidity;BMP_temperature;BMP_pressure;BME280_temperature;BME280_humidity;BME280_pressure;Samples;Min_cycle;Max_cycle;Signal;HPM_P1;HPM_P2
2022/07/23 00:00:12;;;;;;;6.97;6.30;;;;;;;25.29;46.28;99544.38;5092578;28;20206;-58
2022/07/23 00:02:39;;;;;;;7.20;6.00;;;;;;;25.23;46.93;99554.25;5092599;28;20214;-58
2022/07/23 00:05:06;;;;;;;9.80;6.83;;;;;;;25.28;46.51;99548.78;5092604;28;20198;-58
2022/07/23 00:07:33;;;;;;;8.10;5.90;;;;;;;25.31;46.48;99559.19;5092480;28;20191;-56
2022/07/23 00:09:59;;;;;;;6.60;5.30;;;;;;;25.32;46.31;99557.41;5092402;28;20225;-57
2022/07/23 00:12:28;;;;;;;6.67;6.07;;;;;;;25.35;45.95;99560.78;5092730;28;20187;-57
2022/07/23 00:14:55;;;;;;;7.33;5.67;;;;;;;25.29;46.01;99557.53;5092670;28;20198;-57
2022/07/23 00:17:21;;;;;;;6.47;5.50;;;;;;;25.31;46.10;99560.94;5090811;28;20202;-57
2022/07/23 00:19:48;;;;;;;8.33;5.90;;;;;;;25.33;45.75;99562.59;5092144;28;20205;-57
2022/07/23 00:22:15;;;;;;;6.23;5.63;;;;;;;25.35;45.58;99555.50;5092297;28;20201;-57
2022/07/23 00:24:42;;;;;;;10.07;5.93;;;;;;;25.32;45.44;99555.63;5092159;28;20685;-57
2022/07/23 00:27:09;;;;;;;6.43;5.73;;;;;;;25.38;45.19;99557.16;5092478;28;20198;-57
2022/07/23 00:29:37;;;;;;;10.63;6.20;;;;;;;25.41;45.58;99557.03;5092230;28;20223;-57
2022/07/23 00:32:05;;;;;;;10.70;7.27;;;;;;;25.41;46.55;99549.97;5092068;28;20198;-57
2022/07/23 00:34:32;;;;;;;12.37;8.70;;;;;;;25.38;48.38;99544.00;5091997;28;20213;-57
2022/07/23 00:36:59;;;;;;;11.83;8.90;;;;;;;25.35;49.04;99554.66;5092027;28;20195;-56
2022/07/23 00:39:26;;;;;;;11.10;9.77;;;;;;;25.28;49.93;99555.81;5092021;28;20570;-57
2022/07/23 00:41:53;;;;;;;15.97;12.17;;;;;;;25.16;50.45;99563.31;5089784;28;20206;-57
2022/07/23 00:44:21;;;;;;;30.10;23.40;;;;;;;25.14;51.10;99557.25;5092089;28;20194;-57
2022/07/23 00:46:53;;;;;;;27.73;22.77;;;;;;;25.08;51.66;99557.50;5091908;28;20559;-57
2022/07/23 00:49:21;;;;;;;28.60;24.93;;;;;;;24.96;52.06;99551.91;5090732;28;20284;-57
2022/07/23 00:51:48;;;;;;;27.90;25.00;;;;;;;24.97;52.91;99559.72;5092159;28;20195;-57
2022/07/23 00:54:15;;;;;;;27.30;22.45;;;;;;;24.91;53.15;99560.00;5090996;28;20443;-57
2022/07/23 00:56:44;;;;;;;22.93;20.57;;;;;;;24.90;53.04;99562.69;5091785;28;20668;-56
2022/07/23 00:59:11;;;;;;;20.17;17.30;;;;;;;24.88;53.02;99559.25;5091886;28;20195;-58
2022/07/23 01:01:38;;;;;;;16.87;14.07;;;;;;;24.87;52.97;99568.06;5092107;28;20179;-57
2022/07/23 01:04:06;;;;;;;14.73;12.93;;;;;;;24.81;52.65;99566.53;5091527;28;21077;-65
2022/07/23 01:06:36;;;;;;;20.53;12.30;;;;;;;24.67;52.97;99563.56;5071681;28;20199;-66
2022/07/23 01:09:04;;;;;;;16.63;11.80;;;;;;;24.62;53.30;99563.75;5071563;28;20223;-66
2022/07/23 01:11:32;;;;;;;12.47;11.17;;;;;;;24.48;53.61;99541.56;5071415;28;20192;-65
2022/07/23 01:13:59;;;;;;;12.53;10.60;;;;;;;24.55;53.50;99559.66;5071329;28;20192;-66
2022/07/23 01:16:25;;;;;;;12.50;11.00;;;;;;;24.56;53.79;99560.50;5071549;28;20199;-65
2022/07/23 01:18:52;;;;;;;15.43;12.03;;;;;;;24.53;53.91;99558.03;5071575;28;20187;-66
2022/07/23 01:21:22;;;;;;;16.47;12.67;;;;;;;24.45;54.20;99552.19;5071338;28;20192;-65
2022/07/23 01:23:50;;;;;;;14.47;12.93;;;;;;;24.49;54.18;99557.28;5071233;28;20666;-66
2022/07/23 01:26:17;;;;;;;18.23;12.20;;;;;;;24.44;54.67;99558.38;5070761;28;20663;-65
2022/07/23 01:28:44;;;;;;;16.00;12.07;;;;;;;24.45;54.63;99553.06;5070671;28;20219;-66
2022/07/23 01:31:11;;;;;;;14.53;13.00;;;;;;;24.39;54.87;99555.91;5071078;28;20191;-66
2022/07/23 01:33:37;;;;;;;18.23;14.67;;;;;;;24.40;55.08;99557.63;5071271;28;20641;-66
2022/07/23 01:36:05;;;;;;;22.63;16.77;;;;;;;24.37;54.79;99562.13;5070889;28;20191;-65
2022/07/23 01:38:32;;;;;;;16.27;14.57;;;;;;;24.35;54.52;99564.84;5070873;28;20199;-66
2022/07/23 01:41:00;;;;;;;16.33;14.63;;;;;;;24.35;54.70;99564.84;5070851;28;20196;-66
2022/07/23 01:43:27;;;;;;;17.73;14.23;;;;;;;24.38;54.88;99562.09;5071146;28;20199;-65
2022/07/23 01:45:54;;;;;;;17.87;13.47;;;;;;;24.37;54.19;99562.13;5070743;28;20195;-65
2022/07/23 01:48:21;;;;;;;18.47;14.63;;;;;;;24.38;53.75;99562.09;5070747;28;20202;-65
2022/07/23 01:50:48;;;;;;;22.53;16.73;;;;;;;24.35;53.40;99561.34;5070725;28;20203;-66
2022/07/23 01:53:15;;;;;;;22.37;17.60;;;;;;;24.25;53.14;99554.75;5070587;28;20678;-65
2022/07/23 01:55:42;;;;;;;20.40;17.60;;;;;;;24.18;53.58;99555.88;5070443;28;20188;-66
2022/07/23 01:58:11;;;;;;;25.13;18.77;;;;;;;24.14;53.22;99562.19;5070257;28;20223;-65
2022/07/23 02:00:37;;;;;;;22.30;18.37;;;;;;;24.15;53.04;99550.75;5070306;28;20192;-66
2022/07/23 02:03:04;;;;;;;24.07;18.63;;;;;;;24.12;52.87;99554.34;5070313;28;20206;-66
2022/07/23 02:05:32;;;;;;;25.03;18.17;;;;;;;24.11;52.94;99549.16;5070291;28;20215;-65
2022/07/23 02:07:59;;;;;;;21.83;17.53;;;;;;;24.17;52.76;99564.69;5070449;28;20605;-66
2022/07/23 02:10:26;;;;;;;24.40;19.03;;;;;;;24.17;52.78;99557.69;5070340;28;20227;-66
2022/07/23 02:12:53;;;;;;;23.13;17.83;;;;;;;24.14;53.20;99563.03;5070496;28;20261;-66
2022/07/23 02:15:21;;;;;;;23.37;19.40;;;;;;;24.07;53.04;99567.63;5070095;28;20697;-65
2022/07/23 02:17:48;;;;;;;25.87;20.13;;;;;;;24.01;53.54;99566.97;5070386;28;20219;-65
2022/07/23 02:20:15;;;;;;;23.00;19.60;;;;;;;23.91;53.73;99560.38;5070211;28;20202;-66
2022/07/23 02:22:42;;;;;;;24.67;19.40;;;;;;;23.90;54.19;99562.13;5070173;28;20199;-66
2022/07/23 02:25:09;;;;;;;22.73;19.37;;;;;;;23.87;53.96;99564.88;5070510;28;20221;-65
2022/07/23 02:27:36;;;;;;;23.67;20.10;;;;;;;23.83;54.40;99559.78;5070144;28;20253;-65
2022/07/23 02:30:03;;;;;;;24.77;19.20;;;;;;;23.76;54.66;99559.16;5069985;28;20215;-65
2022/07/23 02:32:31;;;;;;;25.60;18.23;;;;;;;23.79;55.02;99560.81;5070320;28;20195;-65
2022/07/23 02:34:58;;;;;;;21.70;18.93;;;;;;;23.79;54.65;99560.81;5070012;28;20191;-65
2022/07/23 02:37:25;;;;;;;26.90;18.50;;;;;;;23.77;55.10;99557.38;5069967;28;20195;-65
2022/07/23 02:39:52;;;;;;;23.83;18.60;;;;;;;23.75;55.40;99556.59;5070085;28;20202;-65
2022/07/23 02:42:19;;;;;;;22.00;17.90;;;;;;;23.74;54.97;99560.97;5069945;28;20196;-65
2022/07/23 02:44:45;;;;;;;21.83;17.13;;;;;;;23.67;55.33;99553.38;5070152;28;20206;-66
2022/07/23 02:47:12;;;;;;;17.57;15.73;;;;;;;23.67;55.32;99564.75;5070107;28;20203;-66
2022/07/23 02:49:40;;;;;;;21.97;15.63;;;;;;;23.61;55.03;99567.59;5070194;28;20227;-66
2022/07/23 02:52:07;;;;;;;19.70;15.97;;;;;;;23.58;55.58;99559.81;5070403;28;20196;-65
2022/07/23 02:54:34;;;;;;;19.20;15.77;;;;;;;23.57;55.76;99560.72;5069857;28;20195;-66
2022/07/23 02:57:01;;;;;;;23.67;16.07;;;;;;;23.57;55.94;99558.09;5069800;28;20721;-65
2022/07/23 02:59:28;;;;;;;15.73;14.10;;;;;;;23.59;55.65;99563.31;5070174;28;20188;-65
2022/07/23 03:01:54;;;;;;;15.77;13.80;;;;;;;23.62;55.32;99564.06;5070050;28;20260;-66
2022/07/23 03:04:21;;;;;;;15.27;12.77;;;;;;;23.63;55.47;99564.88;5069883;28;20650;-66
2022/07/23 03:06:50;;;;;;;19.00;12.10;;;;;;;23.62;54.76;99561.44;5070161;28;20202;-65
2022/07/23 03:09:16;;;;;;;14.93;12.60;;;;;;;23.57;55.29;99565.97;5069873;28;20226;-66
2022/07/23 03:11:43;;;;;;;14.97;12.40;;;;;;;23.58;55.60;99569.44;5069740;28;20199;-66
2022/07/23 03:14:13;;;;;;;16.83;11.77;;;;;;;23.60;54.99;99568.47;5073089;28;20203;-66
2022/07/23 03:16:39;;;;;;;14.00;12.60;;;;;;;23.63;54.97;99573.63;5073691;28;20296;-65
2022/07/23 03:19:06;;;;;;;16.83;12.47;;;;;;;23.65;55.23;99569.16;5073415;28;20257;-65
2022/07/23 03:21:33;;;;;;;14.67;12.47;;;;;;;23.74;55.04;99578.47;5073190;28;20203;-65
2022/07/23 03:24:02;;;;;;;13.63;11.40;;;;;;;23.77;54.84;99584.50;5073606;28;20662;-65
2022/07/23 03:26:29;;;;;;;14.50;12.97;;;;;;;23.84;54.67;99580.72;5073747;28;20176;-66
2022/07/23 03:28:55;;;;;;;16.20;12.73;;;;;;;23.88;55.22;99578.84;5073434;28;20203;-65
2022/07/23 03:31:22;;;;;;;13.23;11.70;;;;;;;23.94;54.37;99579.50;5073209;28;20663;-66
2022/07/23 03:33:49;;;;;;;12.73;11.20;;;;;;;24.02;53.80;99582.69;5073479;28;20203;-65
2022/07/23 03:36:16;;;;;;;15.20;11.43;;;;;;;24.06;53.67;99589.53;5073364;28;20662;-65
2022/07/23 03:38:43;;;;;;;12.50;11.27;;;;;;;24.14;53.19;99586.66;5073503;28;20195;-66
2022/07/23 03:41:11;;;;;;;16.50;11.27;;;;;;;24.21;52.89;99589.91;5073057;28;20666;-66
2022/07/23 03:43:37;;;;;;;17.87;11.80;;;;;;;24.17;53.41;99588.31;5073138;28;20578;-65
2022/07/23 03:46:04;;;;;;;12.90;11.53;;;;;;;24.22;53.35;99586.38;5073212;28;20195;-57
2022/07/23 03:48:31;;;;;;;13.17;11.33;;;;;;;24.19;53.18;99587.34;5072918;28;20290;-57
2022/07/23 03:50:58;;;;;;;12.23;11.03;;;;;;;24.24;53.02;99588.03;5072787;28;20693;-57
2022/07/23 03:53:25;;;;;;;14.40;11.87;;;;;;;24.29;52.44;99586.06;5073131;28;20219;-57
2022/07/23 03:55:52;;;;;;;18.93;11.20;;;;;;;24.24;52.03;99585.41;5072745;28;20198;-56
2022/07/23 03:58:20;;;;;;;11.90;10.70;;;;;;;24.22;52.56;99589.00;5072789;28;20224;-57
2022/07/23 04:00:47;;;;;;;15.35;11.80;;;;;;;24.18;52.36;99588.25;5072171;28;20433;-56
2022/07/23 04:03:14;;;;;;;14.40;11.97;;;;;;;24.14;52.34;99591.06;5072610;28;20666;-56
2022/07/23 04:05:41;;;;;;;14.60;11.10;;;;;;;24.13;52.34;99590.19;5072931;28;20188;-57
2022/07/23 04:08:07;;;;;;;12.73;11.40;;;;;;;24.10;52.36;99589.44;5072867;28;20196;-57
2022/07/23 04:10:34;;;;;;;13.77;11.53;;;;;;;24.12;52.45;99588.47;5072644;28;20623;-56
2022/07/23 04:13:01;;;;;;;15.27;11.90;;;;;;;24.12;52.42;99592.91;5090271;28;20670;-57
2022/07/23 04:15:29;;;;;;;17.40;12.60;;;;;;;24.13;52.04;99589.34;5092485;28;20651;-58
2022/07/23 04:17:56;;;;;;;15.37;12.43;;;;;;;24.19;51.85;99599.63;5093006;28;20191;-57
2022/07/23 04:20:23;;;;;;;16.63;13.83;;;;;;;24.13;51.63;99587.56;5092140;28;20187;-58
2022/07/23 04:22:49;;;;;;;19.40;16.10;;;;;;;24.16;51.72;99594.47;5092728;28;20608;-57
2022/07/23 04:25:17;;;;;;;21.20;18.20;;;;;;;24.07;51.66;99598.25;5091175;28;20203;-58
2022/07/23 04:27:44;;;;;;;24.77;18.20;;;;;;;24.13;51.71;99602.47;5092606;28;20190;-58
2022/07/23 04:30:11;;;;;;;23.43;18.37;;;;;;;24.01;51.79;99580.97;5092532;28;20219;-58
2022/07/23 04:32:39;;;;;;;21.50;18.23;;;;;;;24.12;52.22;99603.41;5092199;28;20191;-57
2022/07/23 04:35:06;;;;;;;20.63;18.47;;;;;;;24.18;51.63;99600.53;5092594;28;20187;-58
2022/07/23 04:37:33;;;;;;;26.27;19.98;;;;;;;24.23;51.50;99601.22;5091948;28;20961;-57
2022/07/23 04:40:00;;;;;;;24.97;19.33;;;;;;;24.27;51.60;99598.41;5092354;28;20186;-57
2022/07/23 04:42:27;;;;;;;22.30;17.93;;;;;;;24.27;51.91;99597.56;5092232;28;20195;-57
2022/07/23 04:44:54;;;;;;;25.10;18.33;;;;;;;24.42;51.64;99591.75;5092663;28;20546;-57
2022/07/23 04:47:20;;;;;;;20.50;18.20;;;;;;;24.49;51.46;99587.94;5092342;28;20195;-57
2022/07/23 04:49:49;;;;;;;25.50;19.93;;;;;;;24.56;50.89;99594.66;5092220;28;20214;-57
2022/07/23 04:52:16;;;;;;;22.00;17.97;;;;;;;24.61;50.85;99604.06;5092315;28;20195;-57
2022/07/23 04:54:42;;;;;;;24.33;18.70;;;;;;;24.70;50.93;99599.38;5088003;28;20195;-58
2022/07/23 04:57:09;;;;;;;25.05;21.13;;;;;;;24.78;50.44;99600.78;5090825;28;20776;-58
2022/07/23 04:59:36;;;;;;;23.33;20.13;;;;;;;24.84;50.02;99599.72;5092073;28;20191;-58
2022/07/23 05:02:03;;;;;;;25.77;22.03;;;;;;;24.90;50.56;99600.34;5091968;28;20243;-58
2022/07/23 05:04:31;;;;;;;26.95;23.67;;;;;;;24.85;50.25;99597.06;5090951;28;20439;-58
2022/07/23 05:06:59;;;;;;;29.03;23.70;;;;;;;24.95;50.63;99602.78;5091740;28;20195;-58
2022/07/23 05:09:26;;;;;;;31.30;24.80;;;;;;;25.04;49.95;99598.00;5091656;28;20202;-58
2022/07/23 05:11:53;;;;;;;30.97;25.60;;;;;;;25.15;50.07;99602.81;5091743;28;20724;-58
2022/07/23 05:14:20;;;;;;;34.10;24.80;;;;;;;25.13;49.94;99602.88;5093028;28;20244;-59
2022/07/23 05:16:46;;;;;;;31.53;24.63;;;;;;;25.23;50.14;99604.22;5092226;28;20285;-57
2022/07/23 05:19:13;;;;;;;29.93;26.67;;;;;;;25.32;49.92;99600.34;5091407;28;20195;-58
2022/07/23 05:21:40;;;;;;;27.30;24.20;;;;;;;25.42;49.29;99598.19;5090738;28;20207;-66
2022/07/23 05:24:09;;;;;;;28.47;25.53;;;;;;;25.44;48.92;99594.56;5091658;28;20217;-66
2022/07/23 05:26:36;;;;;;;22.07;19.70;;;;;;;25.40;49.04;99602.66;5091408;28;20570;-66
2022/07/23 05:29:02;;;;;;;24.15;21.65;;;;;;;25.44;49.16;99601.59;5091100;28;20435;-64
2022/07/23 05:31:29;;;;;;;24.43;18.47;;;;;;;25.63;48.36;99602.53;5091621;28;20223;-66
2022/07/23 05:33:56;;;;;;;19.13;15.73;;;;;;;25.58;48.89;99594.84;5091336;28;20194;-66
2022/07/23 05:36:23;;;;;;;17.60;15.60;;;;;;;25.65;48.54;99591.06;5091294;28;20198;-67
2022/07/23 05:38:50;;;;;;;16.83;14.23;;;;;;;25.78;47.93;99592.22;5091586;28;20199;-66
2022/07/23 05:41:18;;;;;;;19.20;14.50;;;;;;;25.91;47.87;99595.16;5091656;28;20245;-66
2022/07/23 05:43:45;;;;;;;18.63;14.45;;;;;;;25.98;47.99;99593.13;5091377;28;20187;-66
2022/07/23 05:46:11;;;;;;;18.93;14.67;;;;;;;25.99;47.81;99586.91;5091392;28;20303;-66
2022/07/23 05:48:38;;;;;;;16.60;15.00;;;;;;;26.12;46.95;99586.28;5090389;28;20444;-64
2022/07/23 05:51:06;;;;;;;16.73;14.60;;;;;;;26.29;46.63;99594.31;5091013;28;20237;-66
2022/07/23 05:53:33;;;;;;;16.63;14.70;;;;;;;26.41;46.77;99592.03;5091314;28;20264;-67
2022/07/23 05:56:00;;;;;;;17.83;14.00;;;;;;;26.37;46.53;99579.00;5090633;28;20222;-66
2022/07/23 05:58:29;;;;;;;18.23;14.67;;;;;;;26.58;46.73;99598.22;5090619;28;20251;-66
2022/07/23 06:00:55;;;;;;;16.27;14.68;;;;;;;26.60;46.20;99596.38;5090681;28;20198;-65
2022/07/23 06:03:22;;;;;;;18.87;14.20;;;;;;;26.70;46.34;99602.06;5090572;28;20222;-67
2022/07/23 06:05:49;;;;;;;21.83;14.40;;;;;;;26.76;45.77;99586.78;5090531;28;20183;-66
2022/07/23 06:08:16;;;;;;;17.90;14.05;;;;;;;26.84;45.61;99597.84;5090819;28;20199;-66
2022/07/23 06:10:43;;;;;;;18.77;13.85;;;;;;;26.93;45.86;99600.06;5090689;28;20222;-65
2022/07/23 06:13:10;;;;;;;14.70;13.03;;;;;;;27.00;45.83;99600.63;5090595;28;20207;-66
2022/07/23 06:15:38;;;;;;;21.63;13.90;;;;;;;27.11;45.51;99585.13;5090518;28;20273;-57
2022/07/23 06:18:05;;;;;;;17.02;13.85;;;;;;;27.19;45.44;99593.50;5090688;28;20558;-58
2022/07/23 06:20:32;;;;;;;20.20;12.65;;;;;;;27.34;44.84;99587.44;5090021;28;20205;-66
2022/07/23 06:22:59;;;;;;;13.57;12.05;;;;;;;27.45;44.50;99590.44;5090151;28;20199;-66
2022/07/23 06:25:25;;;;;;;15.50;12.63;;;;;;;27.55;44.24;99598.75;5070728;28;20460;-67
2022/07/23 06:27:52;;;;;;;21.67;11.60;;;;;;;27.59;43.92;99595.00;5073489;28;20662;-67
2022/07/23 06:30:19;;;;;;;16.23;11.48;;;;;;;27.76;43.84;99588.84;5079508;28;20229;-66
2022/07/23 06:32:48;;;;;;;16.00;12.00;;;;;;;27.83;43.84;99585.78;5085169;28;20665;-66
2022/07/23 06:35:15;;;;;;;16.67;11.20;;;;;;;27.96;43.48;99593.94;5090246;28;20194;-65
2022/07/23 06:37:41;;;;;;;14.55;10.98;;;;;;;28.06;42.85;99587.25;5090099;28;20205;-66
2022/07/23 06:40:09;;;;;;;14.20;11.82;;;;;;;28.18;43.14;99580.47;5090056;28;20672;-66
2022/07/23 06:42:38;;;;;;;14.60;10.88;;;;;;;28.28;42.45;99587.81;5075678;28;20206;-67
2022/07/23 06:45:07;;;;;;;13.75;10.90;;;;;;;28.39;43.12;99584.56;5089761;28;20199;-66
2022/07/23 06:47:34;;;;;;;13.93;11.70;;;;;;;28.51;43.19;99581.25;5089773;28;20431;-67
2022/07/23 06:50:02;;;;;;;17.80;11.95;;;;;;;28.63;42.91;99586.75;5093704;28;20202;-67
2022/07/23 06:52:29;;;;;;;15.15;10.70;;;;;;;28.74;43.55;99566.75;5093932;28;20195;-66
2022/07/23 06:54:55;;;;;;;14.27;10.38;;;;;;;28.91;41.71;99580.75;5093812;28;20227;-66
2022/07/23 06:57:23;;;;;;;12.63;11.15;;;;;;;28.85;42.25;99569.66;5093387;28;20218;-65
2022/07/23 06:59:49;;;;;;;11.45;8.77;;;;;;;28.98;41.04;99571.50;5079873;28;20201;-64
2022/07/23 07:02:16;;;;;;;12.43;9.57;;;;;;;29.16;41.24;99569.59;5093828;28;20202;-66
2022/07/23 07:04:43;;;;;;;11.57;9.05;;;;;;;29.11;40.72;99574.31;5093491;28;20199;-67
2022/07/23 07:07:11;;;;;;;9.40;8.50;;;;;;;29.23;40.09;99563.00;5092554;28;20634;-66
2022/07/23 07:09:38;;;;;;;13.48;8.43;;;;;;;29.34;39.71;99570.34;5080601;28;20263;-65
2022/07/23 07:12:06;;;;;;;9.50;8.50;;;;;;;29.49;39.70;99554.38;5093454;28;20305;-65
2022/07/23 07:14:33;;;;;;;11.05;9.15;;;;;;;29.54;40.09;99559.41;5093402;28;20202;-65
2022/07/23 07:16:59;;;;;;;14.38;9.32;;;;;;;29.71;39.73;99561.88;5093648;28;20194;-65
2022/07/23 07:19:26;;;;;;;9.05;8.00;;;;;;;29.84;38.75;99560.22;5087147;28;20236;-66
2022/07/23 07:21:53;;;;;;;14.32;8.95;;;;;;;29.98;37.80;99557.56;5082730;28;20440;-66
2022/07/23 07:24:21;;;;;;;10.85;7.55;;;;;;;30.11;37.67;99553.19;5087228;28;20524;-66
2022/07/23 07:26:48;;;;;;;15.75;9.55;;;;;;;30.24;38.22;99550.66;5076965;28;20209;-66
2022/07/23 07:29:15;;;;;;;11.27;8.75;;;;;;;30.33;37.31;99547.38;5091528;28;20195;-65
2022/07/23 07:31:42;;;;;;;8.75;7.85;;;;;;;30.45;36.18;99554.59;5088049;28;20214;-66
2022/07/23 07:34:09;;;;;;;15.85;8.68;;;;;;;30.52;36.74;99558.56;5087027;28;20281;-57
2022/07/23 07:36:37;;;;;;;16.35;8.07;;;;;;;30.55;36.14;99549.53;5085823;28;20202;-57
2022/07/23 07:39:04;;;;;;;11.02;7.20;;;;;;;30.59;35.59;99543.09;5089144;28;20205;-57
2022/07/23 07:41:32;;;;;;;9.98;8.00;;;;;;;30.69;36.33;99544.19;5090826;28;20708;-57
2022/07/23 07:43:59;;;;;;;8.13;7.25;;;;;;;30.73;34.82;99541.25;5091000;28;20249;-58
2022/07/23 07:46:27;;;;;;;12.13;7.85;;;;;;;30.70;34.98;99544.13;5076289;28;20523;-58
2022/07/23 07:48:54;;;;;;;8.88;7.65;;;;;;;30.84;35.06;99535.25;5082969;28;20214;-58
2022/07/23 07:51:21;;;;;;;8.32;7.45;;;;;;;30.95;35.34;99530.97;5072244;28;20211;-58
2022/07/23 07:53:48;;;;;;;9.40;8.13;;;;;;;31.09;34.52;99535.34;5072295;28;20207;-58
2022/07/23 07:56:15;;;;;;;9.02;7.63;;;;;;;31.08;34.31;99530.97;5072222;28;20195;-58
2022/07/23 07:58:43;;;;;;;9.90;7.43;;;;;;;31.18;34.00;99534.72;5071630;28;20231;-57
2022/07/23 08:01:10;;;;;;;14.43;7.40;;;;;;;31.26;34.31;99532.38;5080187;28;20575;-57
2022/07/23 08:03:36;;;;;;;9.48;7.97;;;;;;;31.31;33.01;99518.81;5074074;28;20206;-58
2022/07/23 08:06:04;;;;;;;8.82;7.47;;;;;;;31.37;33.17;99532.50;5075009;28;20290;-57
2022/07/23 08:08:30;;;;;;;12.13;8.00;;;;;;;31.49;33.49;99523.75;5079290;28;20191;-57
2022/07/23 08:10:57;;;;;;;16.63;7.20;;;;;;;31.56;33.50;99525.97;5077483;28;20708;-59
2022/07/23 08:13:24;;;;;;;12.57;8.25;;;;;;;31.65;33.69;99526.19;5084352;28;20449;-57
2022/07/23 08:15:53;;;;;;;28.92;9.63;;;;;;;31.84;33.20;99526.59;5089691;28;20558;-58
2022/07/23 08:18:20;;;;;;;7.68;6.85;;;;;;;31.92;31.84;99520.75;5088624;28;20187;-58
2022/07/23 08:20:47;;;;;;;8.98;7.05;;;;;;;31.97;32.20;99514.16;5089159;28;20182;-58
2022/07/23 08:23:13;;;;;;;11.43;7.35;;;;;;;32.04;32.60;99514.56;5075986;28;20191;-58
2022/07/23 08:25:42;;;;;;;12.50;7.68;;;;;;;31.94;31.95;99487.78;5073138;28;20194;-58
2022/07/23 08:28:11;;;;;;;8.05;7.35;;;;;;;32.20;31.44;99503.69;5071871;28;20199;-58
2022/07/23 08:30:39;;;;;;;22.52;8.02;;;;;;;32.29;31.10;99498.56;5071452;28;20231;-58
2022/07/23 08:33:11;;;;;;;8.48;7.13;;;;;;;32.40;31.00;99501.28;5071821;28;20192;-58
2022/07/23 08:35:39;;;;;;;21.38;7.40;;;;;;;32.48;29.48;99498.06;5084205;28;20196;-58
2022/07/23 08:38:07;;;;;;;13.88;6.90;;;;;;;32.55;30.28;99494.03;5073456;28;20191;-58
2022/07/23 08:40:36;;;;;;;8.25;6.88;;;;;;;32.62;29.63;99495.25;5073118;28;20362;-59
2022/07/23 08:43:06;;;;;;;12.75;7.43;;;;;;;32.68;29.39;99493.00;5071281;28;20257;-59
2022/07/23 08:45:39;;;;;;;8.32;6.47;;;;;;;32.78;29.02;99486.97;5071198;28;20191;-58
2022/07/23 08:48:09;;;;;;;12.35;7.05;;;;;;;32.88;29.29;99485.34;5071348;28;20661;-59
2022/07/23 08:50:38;;;;;;;7.13;6.35;;;;;;;32.89;29.05;99482.53;5071574;28;20196;-58
2022/07/23 08:53:08;;;;;;;7.22;6.55;;;;;;;33.02;29.07;99485.97;5071013;28;20192;-58
2022/07/23 08:55:35;;;;;;;35.88;8.38;;;;;;;33.17;30.19;99479.50;5079127;28;20604;-58
2022/07/23 08:58:03;;;;;;;24.95;8.00;;;;;;;33.25;28.89;99481.56;5070563;28;20231;-58
2022/07/23 09:00:31;;;;;;;9.73;7.20;;;;;;;33.34;29.19;99480.03;5070884;28;20268;-58
2022/07/23 09:02:57;;;;;;;9.57;7.55;;;;;;;33.44;29.18;99476.53;5070906;28;20720;-57
2022/07/23 09:05:26;;;;;;;11.32;7.65;;;;;;;33.66;29.21;99465.06;5071194;28;20298;-57
2022/07/23 09:08:13;;;;;;;9.05;7.47;;;;;;;33.87;28.43;99466.00;5069930;28;20535;-57
2022/07/23 09:11:01;;;;;;;8.68;7.47;;;;;;;34.00;28.33;99457.88;5069889;28;20203;-58
2022/07/23 09:13:34;;;;;;;13.00;7.07;;;;;;;34.18;27.86;99473.28;5076178;28;20252;-58
2022/07/23 09:16:04;;;;;;;10.85;7.10;;;;;;;34.19;28.56;99466.13;5086270;28;20186;-57
2022/07/23 09:18:37;;;;;;;12.02;7.22;;;;;;;34.21;27.63;99467.69;5083058;28;20195;-58
2022/07/23 09:21:25;;;;;;;7.70;6.70;;;;;;;34.31;28.51;99463.28;5082833;28;20188;-58
2022/07/23 09:23:57;;;;;;;12.77;7.28;;;;;;;34.45;27.56;99461.34;5078452;28;20191;-58
2022/07/23 09:26:35;;;;;;;14.52;7.32;;;;;;;34.47;27.01;99462.91;5081441;28;20198;-58
2022/07/23 09:29:11;;;;;;;12.13;6.30;;;;;;;34.49;24.99;99465.44;5078012;28;20279;-58
2022/07/23 09:31:47;;;;;;;13.30;7.18;;;;;;;34.51;25.45;99471.47;5075593;28;20453;-59
2022/07/23 09:34:16;;;;;;;10.20;6.13;;;;;;;34.57;25.20;99458.50;5088790;28;20198;-58
2022/07/23 09:36:45;;;;;;;10.20;6.47;;;;;;;34.57;25.81;99455.00;5071469;28;20199;-57
2022/07/23 09:39:14;;;;;;;8.23;6.13;;;;;;;34.47;25.22;99454.88;5070346;28;20666;-58
2022/07/23 09:41:44;;;;;;;6.93;6.25;;;;;;;34.51;25.53;99440.31;5069651;28;20188;-59
2022/07/23 09:44:17;;;;;;;12.80;6.90;;;;;;;34.73;25.92;99447.41;5070202;28;20188;-58
2022/07/23 09:46:44;;;;;;;7.18;6.47;;;;;;;34.80;25.36;99443.25;5074028;28;20200;-58
2022/07/23 09:49:14;;;;;;;11.93;7.85;;;;;;;34.93;26.03;99439.41;5084200;28;20209;-59
2022/07/23 09:51:51;;;;;;;8.50;5.60;;;;;;;35.03;23.35;99439.47;5076522;28;20224;-58
2022/07/23 09:54:30;;;;;;;12.32;6.22;;;;;;;35.10;23.54;99437.16;5070296;28;20283;-58
2022/07/23 09:56:58;;;;;;;7.60;6.05;;;;;;;35.07;23.94;99427.59;5069819;28;20280;-59
2022/07/23 09:59:28;;;;;;;6.88;6.25;;;;;;;35.14;23.19;99438.56;5070268;28;20188;-58
2022/07/23 10:01:56;;;;;;;6.75;6.10;;;;;;;35.13;23.28;99418.19;5070227;28;20566;-58
2022/07/23 10:04:25;;;;;;;18.20;8.40;;;;;;;35.43;23.71;99426.22;5069381;28;20441;-58
2022/07/23 10:06:56;;;;;;;9.60;5.57;;;;;;;35.58;22.32;99435.59;5069667;28;20191;-58
2022/07/23 10:09:25;;;;;;;24.00;7.50;;;;;;;35.51;22.00;99413.88;5070221;28;20198;-58
2022/07/23 10:11:57;;;;;;;38.15;10.57;;;;;;;35.64;22.22;99429.72;5069765;28;20219;-58
2022/07/23 10:14:25;;;;;;;9.80;5.82;;;;;;;35.73;22.39;99428.91;5070050;28;20245;-58
2022/07/23 10:16:52;;;;;;;6.82;5.60;;;;;;;35.78;21.82;99425.81;5076236;28;20275;-58
2022/07/23 10:19:20;;;;;;;7.38;5.57;;;;;;;35.85;21.72;99427.81;5086786;28;20644;-59
2022/07/23 10:21:51;;;;;;;10.57;5.63;;;;;;;35.95;22.10;99423.34;5089500;28;20255;-58
2022/07/23 10:24:29;;;;;;;9.32;6.60;;;;;;;36.03;22.23;99425.34;5089216;28;20653;-59
2022/07/23 10:27:07;;;;;;;9.90;6.28;;;;;;;36.13;21.42;99417.34;5088359;28;20435;-58
2022/07/23 10:29:47;;;;;;;7.57;5.90;;;;;;;36.07;21.47;99418.72;5089744;28;20190;-59
2022/07/23 10:32:23;;;;;;;7.68;6.45;;;;;;;36.08;21.08;99413.25;5084824;28;20211;-58
2022/07/23 10:34:56;;;;;;;9.73;6.03;;;;;;;36.16;21.50;99407.22;5087105;28;20191;-59
2022/07/23 10:37:29;;;;;;;11.20;6.30;;;;;;;36.16;21.01;99404.53;5089008;28;20662;-57
2022/07/23 10:40:16;;;;;;;9.63;6.22;;;;;;;36.14;21.17;99387.78;5089099;28;20194;-58
2022/07/23 10:42:44;;;;;;;7.60;5.82;;;;;;;36.28;21.14;99400.75;5088485;28;20263;-58
2022/07/23 10:45:26;;;;;;;8.70;6.05;;;;;;;36.29;21.46;99393.56;5086798;28;20219;-58
2022/07/23 10:47:54;;;;;;;8.05;5.72;;;;;;;36.27;21.48;99393.69;5086156;28;20244;-58
2022/07/23 10:50:23;;;;;;;12.20;5.85;;;;;;;36.22;21.05;99393.28;5086357;28;20187;-58
2022/07/23 10:53:09;;;;;;;8.13;5.47;;;;;;;36.11;20.83;99388.06;5088604;28;20766;-58
2022/07/23 10:55:53;;;;;;;9.30;6.07;;;;;;;36.26;20.64;99378.63;5070739;28;20638;-58
2022/07/23 10:58:22;;;;;;;10.48;6.15;;;;;;;36.37;21.20;99378.47;5069087;28;20218;-58
2022/07/23 11:00:50;;;;;;;9.40;6.00;;;;;;;36.49;22.09;99374.72;5069041;28;20446;-58
2022/07/23 11:03:36;;;;;;;9.48;6.88;;;;;;;36.61;21.40;99362.03;5068922;28;20191;-58
2022/07/23 11:06:04;;;;;;;14.00;6.57;;;;;;;36.78;20.22;99371.16;5068659;28;20191;-58
2022/07/23 11:08:31;;;;;;;8.48;5.60;;;;;;;36.83;19.86;99372.41;5067838;28;20245;-58
2022/07/23 11:11:11;;;;;;;10.38;5.97;;;;;;;36.74;18.33;99359.03;5067849;28;20187;-58
2022/07/23 11:13:49;;;;;;;7.53;5.65;;;;;;;36.77;19.35;99359.59;5067818;28;20198;-58
2022/07/23 11:16:29;;;;;;;8.70;5.93;;;;;;;36.84;18.94;99363.38;5078146;28;20213;-58
2022/07/23 11:19:07;;;;;;;12.13;5.38;;;;;;;36.89;19.53;99360.28;5088656;28;20689;-56
2022/07/23 11:21:44;;;;;;;10.63;6.00;;;;;;;36.92;18.74;99354.63;5088846;28;20489;-58
2022/07/23 11:24:13;;;;;;;13.65;6.85;;;;;;;37.02;18.35;99352.78;5089208;28;20187;-58
2022/07/23 11:26:47;;;;;;;9.70;5.93;;;;;;;37.10;18.63;99347.53;5088705;28;20194;-58